Time;durP1;ratioP1;P1;durP2;ratioP2;P2;SDS_P1;SDS_P2;PMS_P1;PMS_P2;Temp;Humidity;BMP_temperature;BMP_pressure;BME280_temperature;BME280_humidity;BME280_pressure;Samples;Min_cycle;Max_cycle;Signal;HPM_P1;HPM_P2
2022/08/19 00:02:48;;;;;;;6.70;6.20;;;;;;;27.22;40.15;94821.75;6186827;28;103325;-53
2022/08/19 00:05:52;;;;;;;7.17;6.40;;;;;;;27.16;40.76;94826.59;6186409;28;103091;-54
2022/08/19 00:08:55;;;;;;;7.17;6.67;;;;;;;27.15;40.44;94825.03;6186777;28;103230;-53
2022/08/19 00:12:00;;;;;;;6.90;6.40;;;;;;;27.09;40.36;94821.03;6156210;28;103504;-55
2022/08/19 00:15:04;;;;;;;6.90;6.30;;;;;;;27.07;40.64;94825.19;6161321;28;103301;-54
2022/08/19 00:18:14;;;;;;;6.73;6.30;;;;;;;27.04;40.93;94821.25;6173415;28;104095;-54
2022/08/19 00:21:17;;;;;;;6.70;6.30;;;;;;;27.02;41.05;94828.09;6180653;28;103996;-54
2022/08/19 00:24:21;;;;;;;6.70;6.20;;;;;;;26.98;40.72;94830.69;6183213;28;104317;-54
2022/08/19 00:27:25;;;;;;;7.10;6.60;;;;;;;26.86;40.71;94841.47;6185915;28;103496;-54
2022/08/19 00:30:29;;;;;;;7.10;6.60;;;;;;;26.93;41.00;94838.22;6177299;28;103527;-54
2022/08/19 00:33:34;;;;;;;6.53;6.13;;;;;;;26.96;40.52;94837.53;6152800;28;105066;-54
2022/08/19 00:36:37;;;;;;;7.20;6.70;;;;;;;27.16;40.34;94844.59;6160887;28;102744;-55
2022/08/19 00:39:40;;;;;;;7.17;6.67;;;;;;;27.23;40.63;94841.34;6161243;28;102830;-55
2022/08/19 00:42:45;;;;;;;7.17;6.67;;;;;;;27.17;40.84;94835.41;6183750;28;103021;-53
2022/08/19 00:45:49;;;;;;;7.43;6.83;;;;;;;27.30;40.56;94828.13;6177429;28;105074;-53
2022/08/19 00:48:52;;;;;;;7.43;6.77;;;;;;;27.29;39.69;94834.63;6185169;28;103384;-54
2022/08/19 00:52:02;;;;;;;6.80;6.30;;;;;;;27.21;40.53;94827.44;6184860;28;104758;-53
2022/08/19 00:55:11;;;;;;;7.53;6.80;;;;;;;27.02;40.54;94830.78;6179978;28;103123;-53
2022/08/19 00:58:21;;;;;;;8.27;7.70;;;;;;;26.39;42.04;94835.88;6179086;28;103178;-53
2022/08/19 01:01:24;;;;;;;7.20;6.60;;;;;;;26.31;42.10;94829.50;6185429;28;102849;-53
2022/08/19 01:04:27;;;;;;;7.30;6.57;;;;;;;26.28;41.93;94841.72;6184757;28;103967;-53
2022/08/19 01:07:30;;;;;;;7.37;6.77;;;;;;;26.42;41.73;94841.34;6175062;28;103943;-53
2022/08/19 01:10:44;;;;;;;7.87;7.10;;;;;;;26.50;41.81;94839.66;6185493;28;103056;-53
2022/08/19 01:13:50;;;;;;;6.87;6.27;;;;;;;26.57;41.64;94835.28;6185015;28;103253;-54
2022/08/19 01:16:56;;;;;;;7.07;6.57;;;;;;;26.69;41.48;94841.75;6162614;28;104123;-54
2022/08/19 01:19:59;;;;;;;7.00;6.50;;;;;;;26.69;41.52;94826.44;6150692;28;103535;-54
2022/08/19 01:23:04;;;;;;;8.47;7.77;;;;;;;26.73;41.52;94830.03;6166993;28;104625;-54
2022/08/19 01:26:07;;;;;;;7.37;6.77;;;;;;;26.80;41.68;94826.75;6184624;28;103267;-54
2022/08/19 01:29:11;;;;;;;7.20;6.70;;;;;;;26.95;41.27;94827.91;6165076;28;103267;-54
2022/08/19 01:32:17;;;;;;;7.20;6.70;;;;;;;27.00;41.16;94827.66;6172191;28;104376;-54
2022/08/19 01:35:37;;;;;;;7.63;7.07;;;;;;;27.10;40.96;94837.94;6159906;28;102840;-54
2022/08/19 01:38:43;;;;;;;7.53;7.03;;;;;;;27.16;41.46;94831.94;6167070;28;103332;-54
2022/08/19 01:41:47;;;;;;;8.00;7.50;;;;;;;27.17;40.82;94825.47;6175894;28;103760;-54
2022/08/19 01:44:50;;;;;;;8.40;7.80;;;;;;;26.91;41.22;94824.38;6181324;28;103536;-54
2022/08/19 01:47:53;;;;;;;7.93;7.33;;;;;;;27.11;41.34;94828.75;6185260;28;104203;-53
2022/08/19 01:51:04;;;;;;;7.63;7.07;;;;;;;27.10;41.44;94832.56;6184076;28;104019;-53
2022/08/19 01:54:09;;;;;;;7.57;7.07;;;;;;;26.93;41.13;94833.63;6175439;28;104089;-54
2022/08/19 01:57:15;;;;;;;7.93;7.10;;;;;;;26.87;41.80;94825.03;6182361;28;103399;-55
2022/08/19 02:00:21;;;;;;;7.57;6.90;;;;;;;26.94;41.06;94834.41;6161937;28;103288;-54
2022/08/19 02:03:24;;;;;;;7.57;6.90;;;;;;;26.92;41.61;94834.75;6162925;28;104274;-54
2022/08/19 02:06:28;;;;;;;8.47;7.67;;;;;;;26.66;41.83;94818.28;6180285;28;104486;-53
2022/08/19 02:09:33;;;;;;;8.30;7.00;;;;;;;26.75;41.26;94827.78;6184552;28;103115;-53
2022/08/19 02:12:36;;;;;;;6.87;6.37;;;;;;;26.71;41.50;94823.41;6183355;28;104843;-52
2022/08/19 02:15:40;;;;;;;7.73;7.13;;;;;;;26.65;41.48;94822.88;6150758;28;103054;-53
2022/08/19 02:18:43;;;;;;;7.80;7.20;;;;;;;26.66;41.58;94820.97;6170633;28;104147;-52
2022/08/19 02:21:47;;;;;;;7.53;6.93;;;;;;;26.80;41.53;94819.47;6186664;28;103468;-54
2022/08/19 02:24:51;;;;;;;7.00;6.53;;;;;;;26.92;41.33;94825.91;6172265;28;103352;-54
2022/08/19 02:27:54;;;;;;;7.33;6.83;;;;;;;27.00;41.07;94828.44;6178709;28;105236;-53
2022/08/19 02:31:00;;;;;;;7.10;6.60;;;;;;;27.07;41.28;94833.25;6188531;28;103873;-54
2022/08/19 02:34:03;;;;;;;7.00;6.30;;;;;;;27.11;40.44;94834.13;6187242;28;103438;-52
2022/08/19 02:38:24;;;;;;;7.93;6.73;;;;;;;27.06;40.84;94837.06;6184437;28;102899;-54
2022/08/19 02:40:33;;;;;;;7.23;6.63;;;;;;;27.16;40.59;94839.22;6187093;28;103034;-53
2022/08/19 02:43:36;;;;;;;7.40;6.90;;;;;;;27.21;40.57;94838.19;6176115;28;103370;-53
2022/08/19 02:46:40;;;;;;;6.93;6.43;;;;;;;27.09;40.49;94844.44;6188235;28;103204;-53
2022/08/19 02:49:43;;;;;;;7.13;6.63;;;;;;;27.04;40.49;94842.75;6179522;28;103343;-54
2022/08/19 02:52:46;;;;;;;7.37;6.87;;;;;;;26.84;40.96;94846.41;6186519;28;103328;-53
2022/08/19 02:55:51;;;;;;;8.67;8.07;;;;;;;26.49;41.15;94846.91;6187729;28;105930;-53
2022/08/19 02:58:56;;;;;;;7.90;7.30;;;;;;;26.56;40.94;94847.16;6186939;28;104073;-53
2022/08/19 03:01:59;;;;;;;7.83;7.13;;;;;;;26.15;42.41;94847.41;6178820;28;104098;-54
2022/08/19 03:05:04;;;;;;;9.30;8.60;;;;;;;25.66;43.18;94845.47;6183850;28;104767;-54
2022/08/19 03:08:07;;;;;;;11.17;10.17;;;;;;;25.27;43.89;94849.50;6167171;28;103262;-53
2022/08/19 03:11:16;;;;;;;11.83;10.67;;;;;;;25.30;43.94;94846.16;6157151;28;104254;-53
2022/08/19 03:14:19;;;;;;;12.30;11.20;;;;;;;25.64;43.21;94846.91;6174569;28;104312;-54
2022/08/19 03:17:22;;;;;;;11.27;10.17;;;;;;;25.94;42.86;94842.16;6187162;28;103228;-55
2022/08/19 03:20:26;;;;;;;11.70;10.73;;;;;;;26.26;42.55;94843.94;6187350;28;103223;-54
2022/08/19 03:23:29;;;;;;;11.83;10.73;;;;;;;26.51;41.98;94835.84;6176115;28;103208;-53
2022/08/19 03:26:34;;;;;;;13.37;12.07;;;;;;;26.70;42.01;94835.25;6187663;28;105148;-53
2022/08/19 03:29:39;;;;;;;18.63;16.83;;;;;;;26.88;41.92;94833.84;6180601;28;105284;-54
2022/08/19 03:32:45;;;;;;;22.77;20.30;;;;;;;26.97;41.06;94844.47;6186126;28;103597;-53
2022/08/19 03:36:08;;;;;;;19.27;17.30;;;;;;;26.76;41.24;94841.97;6171479;28;103081;-56
2022/08/19 03:39:11;;;;;;;16.93;15.23;;;;;;;26.82;41.61;94843.28;6186032;28;104413;-54
2022/08/19 03:42:16;;;;;;;16.80;15.40;;;;;;;26.92;42.02;94844.72;6177132;28;103628;-54
2022/08/19 03:45:39;;;;;;;18.23;14.30;;;;;;;26.84;42.09;94847.19;6178231;28;105544;-54
2022/08/19 03:48:44;;;;;;;16.03;13.77;;;;;;;26.80;42.13;94850.91;6186364;28;103965;-53
2022/08/19 03:51:50;;;;;;;20.30;13.07;;;;;;;26.74;42.73;94855.75;6187329;28;103335;-54
2022/08/19 03:54:53;;;;;;;82.90;17.33;;;;;;;26.77;42.50;94852.38;6179286;28;103304;-51
2022/08/19 03:57:57;;;;;;;119.07;19.57;;;;;;;26.70;42.25;94862.88;6171122;28;105776;-53
2022/08/19 04:01:01;;;;;;;98.60;17.37;;;;;;;26.69;43.10;94860.53;6179711;28;103166;-54
2022/08/19 04:04:04;;;;;;;67.60;17.13;;;;;;;26.69;43.27;94861.31;6184258;28;103121;-56
2022/08/19 04:07:10;;;;;;;42.87;13.70;;;;;;;26.64;42.79;94875.00;6181341;28;103301;-54
2022/08/19 04:10:13;;;;;;;32.83;13.77;;;;;;;26.63;43.14;94876.13;6177768;28;104308;-52
2022/08/19 04:13:19;;;;;;;39.07;13.37;;;;;;;26.61;43.56;94881.00;6172070;28;103205;-52
2022/08/19 04:16:23;;;;;;;26.30;11.50;;;;;;;26.60;43.30;94878.66;6183522;28;103119;-51
2022/08/19 04:19:38;;;;;;;30.13;22.60;;;;;;;26.80;42.87;94883.13;6168330;28;104271;-54
2022/08/19 04:22:41;;;;;;;39.00;32.80;;;;;;;26.94;42.25;94882.75;6184484;28;103145;-51
2022/08/19 04:25:45;;;;;;;25.43;21.77;;;;;;;27.07;42.50;94892.34;6184508;28;102873;-51
2022/08/19 04:28:51;;;;;;;25.63;15.50;;;;;;;27.04;42.49;94893.00;6184790;28;103142;-52
2022/08/19 04:31:56;;;;;;;23.33;14.30;;;;;;;27.10;42.29;94892.44;6174699;28;103197;-53
2022/08/19 04:34:59;;;;;;;15.87;13.17;;;;;;;27.09;42.59;94898.16;6179879;28;104229;-53
2022/08/19 04:38:20;;;;;;;16.10;12.47;;;;;;;27.11;42.54;94887.84;6183042;28;104111;-53
2022/08/19 04:44:46;;;;;;;30.47;13.07;;;;;;;27.07;43.33;94884.28;6176409;28;104909;-53
2022/08/19 04:47:49;;;;;;;18.53;11.10;;;;;;;26.93;42.74;94881.97;6178652;28;103610;-51
2022/08/19 04:51:13;;;;;;;14.00;12.40;;;;;;;26.80;43.19;94883.91;6185763;28;105070;-52
2022/08/19 04:54:22;;;;;;;14.60;11.90;;;;;;;26.63;43.42;94878.00;6176932;28;104375;-52
2022/08/19 04:57:41;;;;;;;16.20;12.33;;;;;;;26.45;42.88;94880.16;6183694;28;103417;-51
2022/08/19 05:00:45;;;;;;;18.90;11.17;;;;;;;26.61;42.78;94880.22;6185645;28;102871;-51
2022/08/19 05:03:48;;;;;;;12.80;10.97;;;;;;;26.38;42.96;94890.66;6186019;28;104125;-51
2022/08/19 05:06:53;;;;;;;13.60;12.40;;;;;;;26.70;42.80;94895.09;6176142;28;103293;-51
2022/08/19 05:10:01;;;;;;;12.43;11.43;;;;;;;26.71;43.16;94890.50;6185339;28;103385;-51
2022/08/19 05:13:05;;;;;;;13.17;11.80;;;;;;;26.70;42.98;94895.09;6185764;28;103204;-52
2022/08/19 05:16:11;;;;;;;9.80;8.97;;;;;;;26.44;42.91;94892.78;6179990;28;103310;-52
2022/08/19 05:22:36;;;;;;;9.83;8.93;;;;;;;26.18;43.23;94877.03;6185444;28;103455;-51
2022/08/19 05:25:40;;;;;;;9.07;8.37;;;;;;;25.90;43.75;94878.78;6184711;28;103166;-52
2022/08/19 05:28:44;;;;;;;9.17;8.47;;;;;;;25.80;44.09;94879.22;6174341;28;103811;-51
2022/08/19 05:31:50;;;;;;;9.67;8.87;;;;;;;25.69;44.65;94885.00;6185352;28;103229;-51
2022/08/19 05:34:53;;;;;;;10.87;9.80;;;;;;;25.59;44.63;94888.13;6185743;28;103072;-51
2022/08/19 05:37:56;;;;;;;10.60;9.60;;;;;;;25.60;44.90;94884.31;6185070;28;103026;-53
2022/08/19 05:41:01;;;;;;;11.13;10.17;;;;;;;25.73;45.69;94884.34;6175705;28;105172;-51
2022/08/19 05:44:08;;;;;;;10.53;9.77;;;;;;;25.76;45.28;94889.81;6186038;28;104933;-51
2022/08/19 05:47:15;;;;;;;11.30;10.40;;;;;;;25.99;45.13;94888.28;6182745;28;103240;-51
2022/08/19 05:50:18;;;;;;;12.07;9.63;;;;;;;26.09;45.13;94889.78;6180323;28;103210;-52
2022/08/19 05:53:21;;;;;;;10.20;9.30;;;;;;;26.15;44.41;94891.13;6181045;28;103178;-51
2022/08/19 05:56:24;;;;;;;17.90;16.20;;;;;;;26.32;45.20;94892.78;6185452;28;104821;-51
2022/08/19 05:59:28;;;;;;;10.60;9.50;;;;;;;26.36;43.92;94884.84;6184548;28;103283;-51
2022/08/19 06:02:35;;;;;;;11.73;10.60;;;;;;;26.42;44.28;94894.25;6174029;28;103571;-51
2022/08/19 06:05:38;;;;;;;12.60;9.73;;;;;;;26.55;44.91;94893.91;6185570;28;104079;-52
2022/08/19 06:08:53;;;;;;;10.50;9.50;;;;;;;26.70;44.22;94895.09;6185048;28;104280;-52
2022/08/19 06:11:59;;;;;;;9.40;8.50;;;;;;;26.65;44.60;94897.25;6185592;28;103741;-51
2022/08/19 06:15:06;;;;;;;10.73;9.73;;;;;;;26.63;44.76;94900.28;6177651;28;103051;-51
2022/08/19 06:18:10;;;;;;;9.03;8.30;;;;;;;26.53;44.04;94903.38;6185742;28;104639;-50
2022/08/19 06:21:14;;;;;;;10.30;9.30;;;;;;;26.40;43.96;94899.94;6185781;28;103356;-51
2022/08/19 06:24:19;;;;;;;12.70;9.20;;;;;;;26.40;44.35;94902.63;6179243;28;104052;-52
2022/08/19 06:27:23;;;;;;;10.07;9.13;;;;;;;26.36;44.93;94909.75;6184829;28;104021;-51
2022/08/19 06:30:26;;;;;;;9.70;8.50;;;;;;;26.26;43.78;94902.97;6184239;28;103949;-51
2022/08/19 06:33:31;;;;;;;11.87;8.30;;;;;;;26.37;44.10;94905.19;6184895;28;103301;-51
2022/08/19 06:36:37;;;;;;;13.60;8.20;;;;;;;26.44;43.31;94908.09;6176610;28;103044;-51
2022/08/19 06:39:42;;;;;;;8.80;7.90;;;;;;;26.68;43.13;94904.63;6184554;28;103572;-52
2022/08/19 06:42:46;;;;;;;8.67;7.93;;;;;;;26.95;42.53;94903.91;6184791;28;103290;-51
2022/08/19 06:45:58;;;;;;;9.30;8.50;;;;;;;27.12;42.16;94906.31;6185050;28;104150;-51
2022/08/19 06:49:04;;;;;;;13.80;10.03;;;;;;;27.32;41.86;94904.56;6175499;28;104156;-51
2022/08/19 06:52:11;;;;;;;10.30;9.30;;;;;;;27.42;41.77;94900.63;6184706;28;103489;-51
2022/08/19 06:55:17;;;;;;;16.10;9.77;;;;;;;27.46;42.43;94899.59;6185381;28;104631;-51
2022/08/19 06:58:20;;;;;;;9.90;9.00;;;;;;;27.61;41.66;94905.34;6177980;28;103233;-51
2022/08/19 07:01:24;;;;;;;9.87;8.87;;;;;;;27.61;41.25;94908.03;6183318;28;104539;-51
2022/08/19 07:04:31;;;;;;;12.40;9.60;;;;;;;27.66;40.84;94903.16;6184896;28;103300;-51
2022/08/19 07:07:36;;;;;;;18.40;10.37;;;;;;;27.70;41.16;94916.69;6187529;28;104052;-52
2022/08/19 07:10:44;;;;;;;11.60;9.10;;;;;;;27.42;41.23;94912.16;6179482;28;103241;-52
2022/08/19 07:13:48;;;;;;;9.80;8.80;;;;;;;27.14;41.57;94914.03;6188553;28;103900;-51
2022/08/19 07:16:57;;;;;;;10.07;9.20;;;;;;;27.01;42.10;94909.81;6188014;28;103136;-51
2022/08/19 07:20:02;;;;;;;9.47;8.70;;;;;;;27.09;42.24;94912.38;6187862;28;103394;-51
2022/08/19 07:23:09;;;;;;;9.73;8.33;;;;;;;27.16;42.50;94909.88;6178642;28;103643;-50
2022/08/19 07:26:20;;;;;;;14.50;9.63;;;;;;;27.31;43.58;94913.75;6186960;28;103280;-51
2022/08/19 07:29:32;;;;;;;9.50;8.43;;;;;;;27.35;42.97;94914.63;6179611;28;103150;-51
2022/08/19 07:32:37;;;;;;;13.10;11.07;;;;;;;27.53;45.44;94908.94;6151390;28;105256;-50
2022/08/19 07:35:42;;;;;;;13.03;11.80;;;;;;;27.72;44.79;94911.75;6161865;28;103108;-51
2022/08/19 07:38:48;;;;;;;15.27;12.60;;;;;;;27.95;47.66;94909.31;6161810;28;103169;-51
2022/08/19 07:41:51;;;;;;;13.73;12.57;;;;;;;28.18;45.80;94906.78;6162082;28;103638;-51
2022/08/19 07:44:54;;;;;;;14.80;13.40;;;;;;;28.09;46.22;94911.56;6151281;28;103360;-53
2022/08/19 07:47:58;;;;;;;17.73;13.93;;;;;;;28.39;43.87;94907.28;6162844;28;104008;-51
2022/08/19 07:51:06;;;;;;;24.43;21.57;;;;;;;28.40;44.75;94894.63;6162559;28;103361;-51
2022/08/19 07:54:09;;;;;;;24.00;18.87;;;;;;;28.48;44.64;94910.59;6177538;28;104145;-51
2022/08/19 07:57:12;;;;;;;30.83;22.00;;;;;;;28.41;45.08;94915.03;6180564;28;104034;-51
2022/08/19 08:00:16;;;;;;;20.90;18.77;;;;;;;28.11;42.99;94906.63;6185508;28;103477;-51
2022/08/19 08:10:06;;;;;;;47.47;43.07;;;;;;;28.27;46.38;94910.09;6186698;28;103630;-51
2022/08/19 08:13:23;;;;;;;37.80;30.30;;;;;;;28.25;46.45;94901.59;6185456;28;103246;-51
2022/08/19 08:16:29;;;;;;;41.00;33.87;;;;;;;28.26;47.14;94897.75;6186144;28;103041;-51
2022/08/19 08:19:33;;;;;;;16.80;15.20;;;;;;;27.77;43.13;94898.84;6175744;28;103349;-53
2022/08/19 08:26:04;;;;;;;29.00;20.10;;;;;;;28.36;42.95;94892.59;6186090;28;103255;-53
2022/08/19 08:29:12;;;;;;;21.40;19.20;;;;;;;28.57;42.87;94886.97;6175840;28;104288;-56
2022/08/19 08:32:16;;;;;;;16.90;15.50;;;;;;;28.27;41.73;94889.34;6186035;28;103108;-53
2022/08/19 08:35:21;;;;;;;13.60;12.10;;;;;;;27.91;40.62;94885.03;6185065;28;103050;-54
2022/08/19 08:38:26;;;;;;;11.10;10.07;;;;;;;27.84;40.78;94884.78;6185708;28;103358;-53
2022/08/19 08:41:44;;;;;;;12.70;10.90;;;;;;;28.59;41.00;94878.53;6174973;28;104099;-53
2022/08/19 08:44:53;;;;;;;11.93;10.70;;;;;;;28.55;40.61;94875.75;6185538;28;103178;-52
2022/08/19 08:48:09;;;;;;;17.33;11.90;;;;;;;28.38;41.09;94876.09;6185382;28;103021;-52
2022/08/19 08:51:30;;;;;;;14.53;11.83;;;;;;;28.54;40.43;94871.50;6177702;28;105524;-55
2022/08/19 08:54:42;;;;;;;11.90;10.80;;;;;;;28.41;39.90;94867.34;6185020;28;103354;-53
2022/08/19 08:58:01;;;;;;;9.53;8.63;;;;;;;28.22;38.90;94870.75;6185547;28;104317;-53
2022/08/19 09:01:05;;;;;;;11.30;8.37;;;;;;;28.25;38.54;94856.63;6185977;28;102666;-54
2022/08/19 09:04:08;;;;;;;10.40;9.37;;;;;;;28.14;38.28;94862.88;6175185;28;104019;-54
2022/08/19 09:07:30;;;;;;;10.67;9.70;;;;;;;27.97;37.48;94859.41;6184448;28;104445;-53
2022/08/19 09:10:44;;;;;;;9.90;9.00;;;;;;;28.12;38.41;94857.84;6203783;28;103064;-54
2022/08/19 09:14:12;;;;;;;11.43;10.33;;;;;;;27.94;39.47;94843.19;6205512;28;102999;-52
2022/08/19 09:17:35;;;;;;;10.83;7.30;;;;;;;27.84;38.48;94852.53;6210689;28;104978;-52
2022/08/19 09:20:38;;;;;;;7.10;6.40;;;;;;;28.57;36.69;94848.50;6209827;28;104211;-53
2022/08/19 09:23:45;;;;;;;7.17;6.67;;;;;;;28.43;37.25;94840.84;6210149;28;103422;-53
2022/08/19 09:26:54;;;;;;;7.83;7.13;;;;;;;28.45;37.78;94846.66;6201168;28;104915;-52
2022/08/19 09:29:59;;;;;;;9.73;7.17;;;;;;;28.41;38.39;94835.03;6209191;28;103122;-51
2022/08/19 09:33:04;;;;;;;9.57;7.97;;;;;;;28.26;35.91;94833.16;6210068;28;103146;-53
2022/08/19 09:36:10;;;;;;;7.70;7.00;;;;;;;28.27;34.74;94832.03;6207579;28;102773;-54
2022/08/19 09:39:13;;;;;;;7.17;6.67;;;;;;;28.19;35.78;94825.69;6202403;28;103270;-52
2022/08/19 09:42:19;;;;;;;7.30;6.40;;;;;;;28.15;34.92;94824.06;6208938;28;103018;-53
2022/08/19 09:45:33;;;;;;;7.73;7.03;;;;;;;28.25;33.93;94826.22;6209739;28;103349;-54
2022/08/19 09:48:36;;;;;;;8.20;6.57;;;;;;;28.32;34.30;94829.84;6200353;28;103958;-53
2022/08/19 09:51:40;;;;;;;8.83;7.80;;;;;;;28.43;35.38;94823.94;6209698;28;104351;-52
2022/08/19 09:54:43;;;;;;;8.13;7.53;;;;;;;28.37;34.22;94823.41;6164486;28;104258;-53
2022/08/19 09:57:56;;;;;;;8.20;7.50;;;;;;;28.31;34.54;94819.44;6159591;28;103063;-52
2022/08/19 10:01:00;;;;;;;8.83;6.10;;;;;;;28.19;34.80;94816.84;6150549;28;103304;-53
2022/08/19 10:04:08;;;;;;;8.17;7.37;;;;;;;28.26;34.89;94808.94;6160576;28;103080;-53
2022/08/19 10:07:22;;;;;;;7.80;7.23;;;;;;;28.19;34.78;94801.47;6160589;28;103340;-53
2022/08/19 10:10:38;;;;;;;9.33;8.53;;;;;;;28.32;35.86;94794.06;6155274;28;103131;-54
2022/08/19 10:13:46;;;;;;;10.60;9.63;;;;;;;28.44;36.19;94791.25;6156057;28;103805;-52
2022/08/19 10:16:51;;;;;;;14.83;11.70;;;;;;;28.45;37.47;94792.03;6160678;28;102834;-52
2022/08/19 10:19:55;;;;;;;27.43;15.70;;;;;;;28.35;41.30;94796.84;6160275;28;104036;-50
2022/08/19 10:22:59;;;;;;;8.73;7.97;;;;;;;28.87;34.20;94792.91;6150072;28;104498;-53
2022/08/19 10:26:05;;;;;;;10.17;9.37;;;;;;;29.12;32.99;94796.13;6160204;28;103237;-53
2022/08/19 10:29:11;;;;;;;8.53;7.93;;;;;;;29.44;33.00;94787.84;6178029;28;103132;-58
2022/08/19 10:32:14;;;;;;;11.23;10.33;;;;;;;29.36;33.10;94780.75;6183294;28;103062;-52
2022/08/19 10:35:18;;;;;;;8.33;7.70;;;;;;;29.91;31.92;94784.78;6171687;28;104045;-52
2022/08/19 10:38:25;;;;;;;10.37;9.67;;;;;;;29.76;32.59;94774.91;6174530;28;103227;-52
2022/08/19 10:41:36;;;;;;;13.30;11.97;;;;;;;29.37;35.19;94779.59;6183149;28;104049;-53
2022/08/19 10:44:41;;;;;;;13.77;12.27;;;;;;;29.20;37.03;94778.94;6181423;28;103235;-52
2022/08/19 10:47:44;;;;;;;14.20;12.80;;;;;;;29.13;37.15;94768.03;6181663;28;104085;-54
2022/08/19 10:54:10;;;;;;;14.60;12.80;;;;;;;29.01;37.46;94770.88;6107064;28;103214;-51
2022/08/19 10:57:14;;;;;;;30.87;13.53;;;;;;;28.89;39.84;94771.00;6167994;28;102960;-52
2022/08/19 11:00:19;;;;;;;19.10;13.60;;;;;;;28.79;40.49;94769.69;6185813;28;103182;-52
2022/08/19 11:03:22;;;;;;;18.43;12.37;;;;;;;28.62;40.67;94765.50;6187677;28;103812;-51
2022/08/19 11:06:25;;;;;;;16.00;13.80;;;;;;;28.57;40.39;94770.41;6184061;28;103038;-52
2022/08/19 11:09:29;;;;;;;17.30;13.77;;;;;;;28.51;39.71;94761.81;6177211;28;103421;-52
2022/08/19 11:12:38;;;;;;;14.20;12.90;;;;;;;28.29;40.10;94770.56;6187117;28;103043;-53
2022/08/19 11:15:45;;;;;;;14.40;13.00;;;;;;;27.81;39.69;94766.38;6188098;28;103228;-52
2022/08/19 11:18:51;;;;;;;12.70;11.50;;;;;;;27.46;38.83;94762.50;6182092;28;103824;-53
2022/08/19 11:21:55;;;;;;;11.40;10.60;;;;;;;27.33;37.80;94771.00;6182294;28;103355;-53
2022/08/19 11:25:02;;;;;;;12.23;11.23;;;;;;;27.20;37.08;94762.19;6185646;28;103362;-51
2022/08/19 11:28:05;;;;;;;12.90;11.87;;;;;;;27.17;37.44;94755.59;6186794;28;103071;-51
2022/08/19 11:31:13;;;;;;;12.97;12.00;;;;;;;27.02;36.80;94756.34;6176072;28;103180;-52
2022/08/19 11:34:19;;;;;;;12.30;11.23;;;;;;;26.83;36.09;94754.34;6184833;28;103331;-51
2022/08/19 11:37:22;;;;;;;12.63;11.60;;;;;;;26.68;35.76;94749.69;6188215;28;103348;-52
2022/08/19 11:40:25;;;;;;;9.53;8.80;;;;;;;27.57;35.11;94748.56;6185089;28;103065;-51
2022/08/19 11:43:29;;;;;;;9.73;8.80;;;;;;;28.18;34.61;94745.31;6174998;28;104049;-55
2022/08/19 11:46:45;;;;;;;9.33;8.73;;;;;;;28.38;34.14;94738.81;6185036;28;102932;-52
2022/08/19 11:49:48;;;;;;;10.40;9.70;;;;;;;28.59;33.78;94741.22;6184977;28;103604;-50
2022/08/19 11:52:54;;;;;;;10.50;9.77;;;;;;;28.57;34.67;94730.81;6180639;28;104203;-51
2022/08/19 11:55:57;;;;;;;10.83;10.00;;;;;;;28.40;35.51;94725.81;6180150;28;103391;-52
2022/08/19 11:59:01;;;;;;;11.37;10.47;;;;;;;28.33;35.96;94725.66;6184345;28;103222;-51
2022/08/19 12:02:06;;;;;;;12.43;10.47;;;;;;;28.40;35.15;94725.81;6185899;28;103072;-51
2022/08/19 12:05:10;;;;;;;11.30;10.50;;;;;;;28.28;36.01;94725.94;6175471;28;103333;-51
2022/08/19 12:08:15;;;;;;;12.87;11.80;;;;;;;28.12;36.80;94719.84;6188542;28;104183;-53
2022/08/19 12:11:18;;;;;;;12.30;11.40;;;;;;;28.16;36.04;94716.06;6186233;28;103057;-53
2022/08/19 12:14:22;;;;;;;10.40;9.60;;;;;;;28.42;35.03;94710.09;6185359;28;103335;-53
2022/08/19 12:17:28;;;;;;;10.40;9.60;;;;;;;28.50;34.30;94703.72;6176155;28;103796;-53
2022/08/19 12:20:31;;;;;;;10.60;9.83;;;;;;;28.52;34.33;94700.66;6186293;28;103864;-53
2022/08/19 12:23:38;;;;;;;11.30;10.30;;;;;;;28.73;34.35;94697.59;6185873;28;104084;-53
2022/08/19 12:26:42;;;;;;;11.70;10.80;;;;;;;28.94;33.25;94692.63;6181508;28;103328;-53
2022/08/19 12:29:55;;;;;;;11.57;10.67;;;;;;;28.82;34.07;94690.06;6180516;28;103084;-53
2022/08/19 12:32:59;;;;;;;12.73;11.83;;;;;;;28.82;34.21;94682.00;6182646;28;103664;-52
2022/08/19 12:36:05;;;;;;;12.00;10.90;;;;;;;28.90;34.17;94691.78;6186051;28;103376;-53
2022/08/19 12:39:09;;;;;;;13.57;12.23;;;;;;;28.90;35.39;94689.09;6160013;28;103993;-54
2022/08/19 12:42:15;;;;;;;14.30;13.10;;;;;;;28.46;38.43;94681.34;6174032;28;104123;-54
2022/08/19 12:45:18;;;;;;;14.93;13.47;;;;;;;28.15;38.68;94676.06;6184071;28;103255;-53
2022/08/19 12:48:24;;;;;;;14.00;12.93;;;;;;;27.84;38.69;94674.25;6185514;28;103210;-54
2022/08/19 12:51:36;;;;;;;14.30;13.00;;;;;;;27.49;38.79;94671.53;6175863;28;105777;-54
2022/08/19 12:54:39;;;;;;;14.23;12.90;;;;;;;27.29;39.30;94673.41;6184860;28;102929;-53
2022/08/19 12:57:42;;;;;;;14.40;13.20;;;;;;;27.04;40.02;94665.47;6183869;28;103221;-53
2022/08/19 13:00:45;;;;;;;14.80;13.57;;;;;;;26.83;39.76;94673.78;6179421;28;102798;-53
2022/08/19 13:03:50;;;;;;;14.90;13.60;;;;;;;26.68;39.36;94669.16;6179265;28;104117;-55
2022/08/19 13:06:53;;;;;;;13.80;12.70;;;;;;;26.39;39.57;94666.84;6186099;28;103113;-54
2022/08/19 13:09:56;;;;;;;15.03;13.63;;;;;;;26.24;39.27;94669.13;6184476;28;103861;-54
2022/08/19 13:13:01;;;;;;;15.03;13.73;;;;;;;26.15;39.29;94665.81;6173944;28;104141;-54
2022/08/19 13:16:04;;;;;;;14.93;13.57;;;;;;;26.04;39.41;94664.72;6184701;28;104251;-53
2022/08/19 13:19:10;;;;;;;14.93;13.63;;;;;;;25.91;39.25;94655.91;6185104;28;102821;-54
2022/08/19 13:22:13;;;;;;;14.77;13.40;;;;;;;25.91;39.15;94655.91;6182969;28;103470;-54
2022/08/19 13:25:19;;;;;;;14.00;12.90;;;;;;;25.91;39.08;94649.78;6173277;28;105158;-55
2022/08/19 13:28:22;;;;;;;14.60;13.40;;;;;;;25.95;38.69;94656.00;6184769;28;103284;-55
2022/08/19 13:34:55;;;;;;;15.67;13.00;;;;;;;26.19;39.66;94644.44;6180585;28;104287;-54
2022/08/19 13:37:58;;;;;;;14.90;13.40;;;;;;;26.12;40.02;94642.34;6178862;28;103321;-54
2022/08/19 13:41:07;;;;;;;13.63;12.40;;;;;;;26.11;39.48;94643.47;6183147;28;103101;-55
2022/08/19 13:44:15;;;;;;;14.53;13.33;;;;;;;26.13;39.22;94643.91;6184928;28;104567;-54
2022/08/19 13:47:18;;;;;;;13.50;12.40;;;;;;;25.97;40.14;94638.47;6172909;28;102854;-53
2022/08/19 13:50:25;;;;;;;14.10;12.80;;;;;;;25.98;40.37;94633.88;6180910;28;103334;-54
2022/08/19 13:53:31;;;;;;;13.87;12.77;;;;;;;25.93;40.46;94631.44;6183647;28;103003;-54
2022/08/19 13:56:34;;;;;;;14.83;13.53;;;;;;;25.77;41.36;94627.91;6183016;28;103126;-54
2022/08/19 13:59:37;;;;;;;14.27;12.97;;;;;;;25.90;41.60;94621.41;6172999;28;103056;-55
2022/08/19 14:02:41;;;;;;;16.13;14.50;;;;;;;25.79;42.08;94631.03;6184800;28;102949;-55
2022/08/19 14:05:46;;;;;;;17.07;13.93;;;;;;;25.72;42.88;94626.25;6184064;28;104354;-54
2022/08/19 14:08:52;;;;;;;15.93;14.33;;;;;;;25.73;42.94;94622.47;6179280;28;104006;-54
2022/08/19 14:11:56;;;;;;;19.30;14.73;;;;;;;25.81;41.98;94629.56;6176636;28;103834;-53
2022/08/19 14:23:51;;;;;;;15.57;14.17;;;;;;;26.47;40.81;94613.00;6185038;28;103048;-53
2022/08/19 14:26:55;;;;;;;15.83;14.20;;;;;;;26.50;40.10;94623.06;6179691;28;102982;-54
2022/08/19 14:29:58;;;;;;;17.23;14.37;;;;;;;26.61;40.48;94622.56;6191484;28;104860;-53
2022/08/19 14:33:03;;;;;;;15.73;14.33;;;;;;;26.70;40.12;94613.22;6192728;28;104386;-52
2022/08/19 14:36:06;;;;;;;14.87;13.50;;;;;;;26.66;39.73;94607.00;6183610;28;104620;-52
2022/08/19 14:39:11;;;;;;;14.53;13.23;;;;;;;26.54;39.86;94607.03;6192785;28;102792;-55
2022/08/19 14:42:14;;;;;;;15.93;14.43;;;;;;;26.44;39.83;94607.56;6192725;28;104241;-52
2022/08/19 14:45:18;;;;;;;15.93;14.30;;;;;;;26.36;39.92;94611.16;6190965;28;102976;-55
2022/08/19 14:48:21;;;;;;;14.93;13.60;;;;;;;26.34;40.22;94598.09;6179332;28;104099;-53